sensor_id;sensor_type;location;lat;lon;timestamp;temperature;humidity
41904;DHT22;27586;51.124;4.182;2024-01-06T00:00:33;8.60;99.90
41904;DHT22;27586;51.124;4.182;2024-01-06T00:02:59;8.60;99.90
41904;DHT22;27586;51.124;4.182;2024-01-06T00:05:24;8.60;99.90
41904;DHT22;27586;51.124;4.182;2024-01-06T00:07:50;8.60;99.90
41904;DHT22;27586;51.124;4.182;2024-01-06T00:10:16;8.60;99.90
41904;DHT22;27586;51.124;4.182;2024-01-06T00:12:42;8.60;99.90
41904;DHT22;27586;51.124;4.182;2024-01-06T00:15:08;8.60;99.90
41904;DHT22;27586;51.124;4.182;2024-01-06T00:17:34;8.60;99.90
41904;DHT22;27586;51.124;4.182;2024-01-06T00:19:59;8.50;99.90
41904;DHT22;27586;51.124;4.182;2024-01-06T00:22:27;8.60;99.90
41904;DHT22;27586;51.124;4.182;2024-01-06T00:24:53;8.60;99.90
41904;DHT22;27586;51.124;4.182;2024-01-06T00:27:18;8.60;99.90
41904;DHT22;27586;51.124;4.182;2024-01-06T00:29:44;8.60;99.90
41904;DHT22;27586;51.124;4.182;2024-01-06T00:32:10;8.60;99.90
41904;DHT22;27586;51.124;4.182;2024-01-06T00:34:36;8.60;99.90
41904;DHT22;27586;51.124;4.182;2024-01-06T00:37:01;8.60;99.90
41904;DHT22;27586;51.124;4.182;2024-01-06T00:39:27;8.60;99.90
41904;DHT22;27586;51.124;4.182;2024-01-06T00:41:52;8.60;99.90
41904;DHT22;27586;51.124;4.182;2024-01-06T00:44:18;8.70;99.90
41904;DHT22;27586;51.124;4.182;2024-01-06T00:46:45;8.60;99.90
41904;DHT22;27586;51.124;4.182;2024-01-06T00:49:10;8.70;99.90
41904;DHT22;27586;51.124;4.182;2024-01-06T00:51:36;8.60;99.90
41904;DHT22;27586;51.124;4.182;2024-01-06T00:54:02;8.70;99.90
41904;DHT22;27586;51.124;4.182;2024-01-06T00:56:27;8.70;99.90
41904;DHT22;27586;51.124;4.182;2024-01-06T00:58:54;8.70;99.90
41904;DHT22;27586;51.124;4.182;2024-01-06T01:01:20;8.40;99.90
41904;DHT22;27586;51.124;4.182;2024-01-06T01:03:46;8.50;99.90
41904;DHT22;27586;51.124;4.182;2024-01-06T01:06:12;8.50;99.90
41904;DHT22;27586;51.124;4.182;2024-01-06T01:08:38;8.50;99.90
41904;DHT22;27586;51.124;4.182;2024-01-06T01:11:03;8.50;99.90
41904;DHT22;27586;51.124;4.182;2024-01-06T01:13:29;8.50;99.90
41904;DHT22;27586;51.124;4.182;2024-01-06T01:15:55;8.50;99.90
41904;DHT22;27586;51.124;4.182;2024-01-06T01:18:21;8.50;99.90
41904;DHT22;27586;51.124;4.182;2024-01-06T01:20:47;8.50;99.90
41904;DHT22;27586;51.124;4.182;2024-01-06T01:23:12;8.40;99.90
41904;DHT22;27586;51.124;4.182;2024-01-06T01:25:38;8.40;99.90
41904;DHT22;27586;51.124;4.182;2024-01-06T01:28:04;8.40;99.90
41904;DHT22;27586;51.124;4.182;2024-01-06T01:30:30;8.40;99.90
41904;DHT22;27586;51.124;4.182;2024-01-06T01:32:58;8.50;99.90
41904;DHT22;27586;51.124;4.182;2024-01-06T01:35:23;8.40;99.90
41904;DHT22;27586;51.124;4.182;2024-01-06T01:37:49;8.40;99.90
41904;DHT22;27586;51.124;4.182;2024-01-06T01:40:15;8.40;99.90
41904;DHT22;27586;51.124;4.182;2024-01-06T01:42:44;8.50;99.90
41904;DHT22;27586;51.124;4.182;2024-01-06T01:45:09;8.60;99.90
41904;DHT22;27586;51.124;4.182;2024-01-06T01:47:36;8.60;99.90
41904;DHT22;27586;51.124;4.182;2024-01-06T01:50:03;8.50;99.90
41904;DHT22;27586;51.124;4.182;2024-01-06T01:52:30;8.60;99.90
41904;DHT22;27586;51.124;4.182;2024-01-06T01:54:55;8.60;99.90
41904;DHT22;27586;51.124;4.182;2024-01-06T01:57:23;8.60;99.90
41904;DHT22;27586;51.124;4.182;2024-01-06T01:59:49;8.70;99.90
41904;DHT22;27586;51.124;4.182;2024-01-06T02:02:16;8.60;99.90
41904;DHT22;27586;51.124;4.182;2024-01-06T02:04:42;8.70;99.90
41904;DHT22;27586;51.124;4.182;2024-01-06T02:07:10;8.60;99.90
41904;DHT22;27586;51.124;4.182;2024-01-06T02:09:36;8.60;99.90
41904;DHT22;27586;51.124;4.182;2024-01-06T02:12:01;8.50;99.90
41904;DHT22;27586;51.124;4.182;2024-01-06T02:14:28;8.60;99.90
41904;DHT22;27586;51.124;4.182;2024-01-06T02:16:54;8.50;99.90
41904;DHT22;27586;51.124;4.182;2024-01-06T02:19:20;8.30;99.90
41904;DHT22;27586;51.124;4.182;2024-01-06T02:21:54;8.20;99.90
41904;DHT22;27586;51.124;4.182;2024-01-06T02:24:20;8.00;99.90
41904;DHT22;27586;51.124;4.182;2024-01-06T02:26:46;7.80;99.90
41904;DHT22;27586;51.124;4.182;2024-01-06T02:29:12;7.80;99.90
41904;DHT22;27586;51.124;4.182;2024-01-06T02:31:37;7.80;99.90
41904;DHT22;27586;51.124;4.182;2024-01-06T02:34:03;7.90;99.90
41904;DHT22;27586;51.124;4.182;2024-01-06T02:36:29;7.90;99.90
41904;DHT22;27586;51.124;4.182;2024-01-06T02:38:54;7.80;99.90
41904;DHT22;27586;51.124;4.182;2024-01-06T02:41:20;7.80;99.90
41904;DHT22;27586;51.124;4.182;2024-01-06T02:43:46;7.80;99.90
41904;DHT22;27586;51.124;4.182;2024-01-06T02:46:12;7.70;99.90
41904;DHT22;27586;51.124;4.182;2024-01-06T02:48:38;7.80;99.90
41904;DHT22;27586;51.124;4.182;2024-01-06T02:51:04;7.70;99.90
41904;DHT22;27586;51.124;4.182;2024-01-06T02:53:29;7.70;99.90
41904;DHT22;27586;51.124;4.182;2024-01-06T02:55:55;7.70;99.90
41904;DHT22;27586;51.124;4.182;2024-01-06T02:58:21;7.60;99.90
41904;DHT22;27586;51.124;4.182;2024-01-06T03:00:46;7.40;99.90
41904;DHT22;27586;51.124;4.182;2024-01-06T03:03:12;7.40;99.90
41904;DHT22;27586;51.124;4.182;2024-01-06T03:05:37;7.30;99.90
41904;DHT22;27586;51.124;4.182;2024-01-06T03:08:04;7.40;99.90
41904;DHT22;27586;51.124;4.182;2024-01-06T03:10:30;7.50;99.90
41904;DHT22;27586;51.124;4.182;2024-01-06T03:12:55;7.40;99.90
41904;DHT22;27586;51.124;4.182;2024-01-06T03:15:22;7.40;99.90
41904;DHT22;27586;51.124;4.182;2024-01-06T03:17:47;7.40;99.90
41904;DHT22;27586;51.124;4.182;2024-01-06T03:20:13;7.40;99.90
41904;DHT22;27586;51.124;4.182;2024-01-06T03:22:39;7.40;99.90
41904;DHT22;27586;51.124;4.182;2024-01-06T03:25:05;7.50;99.90
41904;DHT22;27586;51.124;4.182;2024-01-06T03:27:31;7.40;99.90
41904;DHT22;27586;51.124;4.182;2024-01-06T03:29:57;7.40;99.90
41904;DHT22;27586;51.124;4.182;2024-01-06T03:32:23;7.40;99.90
41904;DHT22;27586;51.124;4.182;2024-01-06T03:34:50;7.50;99.90
41904;DHT22;27586;51.124;4.182;2024-01-06T03:37:15;7.50;99.90
41904;DHT22;27586;51.124;4.182;2024-01-06T03:39:41;7.50;99.90
41904;DHT22;27586;51.124;4.182;2024-01-06T03:42:07;7.50;99.90
41904;DHT22;27586;51.124;4.182;2024-01-06T03:44:32;7.60;99.90
41904;DHT22;27586;51.124;4.182;2024-01-06T03:46:59;7.60;99.90
41904;DHT22;27586;51.124;4.182;2024-01-06T03:49:25;7.60;99.90
41904;DHT22;27586;51.124;4.182;2024-01-06T03:51:51;7.50;99.90
41904;DHT22;27586;51.124;4.182;2024-01-06T03:54:17;7.50;99.90
41904;DHT22;27586;51.124;4.182;2024-01-06T03:56:43;7.50;99.90
41904;DHT22;27586;51.124;4.182;2024-01-06T03:59:08;7.60;99.90
41904;DHT22;27586;51.124;4.182;2024-01-06T04:01:34;7.70;99.90
41904;DHT22;27586;51.124;4.182;2024-01-06T04:04:05;7.80;99.90
41904;DHT22;27586;51.124;4.182;2024-01-06T04:06:31;7.70;99.90
41904;DHT22;27586;51.124;4.182;2024-01-06T04:09:00;7.60;99.90
41904;DHT22;27586;51.124;4.182;2024-01-06T04:11:26;7.60;99.90
41904;DHT22;27586;51.124;4.182;2024-01-06T04:13:52;7.60;99.90
41904;DHT22;27586;51.124;4.182;2024-01-06T04:16:17;7.40;99.90
41904;DHT22;27586;51.124;4.182;2024-01-06T04:18:43;7.50;99.90
41904;DHT22;27586;51.124;4.182;2024-01-06T04:21:09;7.40;99.90
41904;DHT22;27586;51.124;4.182;2024-01-06T04:23:34;7.30;99.90
41904;DHT22;27586;51.124;4.182;2024-01-06T04:26:00;7.20;99.90
41904;DHT22;27586;51.124;4.182;2024-01-06T04:28:27;7.10;99.90
41904;DHT22;27586;51.124;4.182;2024-01-06T04:30:53;7.20;99.90
41904;DHT22;27586;51.124;4.182;2024-01-06T04:33:18;7.30;99.90
41904;DHT22;27586;51.124;4.182;2024-01-06T04:35:44;7.20;99.90
41904;DHT22;27586;51.124;4.182;2024-01-06T04:38:10;7.20;99.90
41904;DHT22;27586;51.124;4.182;2024-01-06T04:40:35;7.10;99.90
41904;DHT22;27586;51.124;4.182;2024-01-06T04:43:01;7.10;99.90
41904;DHT22;27586;51.124;4.182;2024-01-06T04:45:27;7.00;99.90
41904;DHT22;27586;51.124;4.182;2024-01-06T04:47:53;7.00;99.90
41904;DHT22;27586;51.124;4.182;2024-01-06T04:50:18;7.10;99.90
41904;DHT22;27586;51.124;4.182;2024-01-06T04:52:44;7.10;99.90
41904;DHT22;27586;51.124;4.182;2024-01-06T04:55:10;7.20;99.90
41904;DHT22;27586;51.124;4.182;2024-01-06T04:57:37;7.10;99.90
41904;DHT22;27586;51.124;4.182;2024-01-06T05:00:03;7.00;99.90
41904;DHT22;27586;51.124;4.182;2024-01-06T05:02:29;7.10;99.90
41904;DHT22;27586;51.124;4.182;2024-01-06T05:04:55;7.10;99.90
41904;DHT22;27586;51.124;4.182;2024-01-06T05:07:20;6.90;99.90
41904;DHT22;27586;51.124;4.182;2024-01-06T05:09:47;6.90;99.90
41904;DHT22;27586;51.124;4.182;2024-01-06T05:12:12;6.90;99.90
41904;DHT22;27586;51.124;4.182;2024-01-06T05:14:38;6.80;99.90
41904;DHT22;27586;51.124;4.182;2024-01-06T05:17:03;6.90;99.90
41904;DHT22;27586;51.124;4.182;2024-01-06T05:19:29;6.80;99.90
41904;DHT22;27586;51.124;4.182;2024-01-06T05:21:55;6.80;99.90
41904;DHT22;27586;51.124;4.182;2024-01-06T05:24:21;6.90;99.90
41904;DHT22;27586;51.124;4.182;2024-01-06T05:26:46;6.90;99.90
41904;DHT22;27586;51.124;4.182;2024-01-06T05:29:12;6.80;99.90
41904;DHT22;27586;51.124;4.182;2024-01-06T05:31:38;6.80;99.90
41904;DHT22;27586;51.124;4.182;2024-01-06T05:34:03;6.90;99.90
41904;DHT22;27586;51.124;4.182;2024-01-06T05:36:30;6.70;99.90
41904;DHT22;27586;51.124;4.182;2024-01-06T05:38:55;6.70;99.90
41904;DHT22;27586;51.124;4.182;2024-01-06T05:41:21;6.60;99.90
41904;DHT22;27586;51.124;4.182;2024-01-06T05:43:47;6.60;99.90
41904;DHT22;27586;51.124;4.182;2024-01-06T05:46:23;6.70;99.90
41904;DHT22;27586;51.124;4.182;2024-01-06T05:48:49;6.70;99.90
41904;DHT22;27586;51.124;4.182;2024-01-06T05:51:15;6.70;99.90
41904;DHT22;27586;51.124;4.182;2024-01-06T05:53:40;6.60;99.90
41904;DHT22;27586;51.124;4.182;2024-01-06T05:56:07;6.60;99.90
41904;DHT22;27586;51.124;4.182;2024-01-06T05:58:34;6.60;99.90
41904;DHT22;27586;51.124;4.182;2024-01-06T06:01:00;6.60;99.90
41904;DHT22;27586;51.124;4.182;2024-01-06T06:03:25;6.60;99.90
41904;DHT22;27586;51.124;4.182;2024-01-06T06:05:51;6.50;99.90
41904;DHT22;27586;51.124;4.182;2024-01-06T06:08:18;6.50;99.90
41904;DHT22;27586;51.124;4.182;2024-01-06T06:10:43;6.50;99.90
41904;DHT22;27586;51.124;4.182;2024-01-06T06:13:26;6.50;99.90
41904;DHT22;27586;51.124;4.182;2024-01-06T06:15:52;6.40;99.90
41904;DHT22;27586;51.124;4.182;2024-01-06T06:18:18;6.50;99.90
41904;DHT22;27586;51.124;4.182;2024-01-06T06:20:44;6.50;99.90
41904;DHT22;27586;51.124;4.182;2024-01-06T06:23:09;6.40;99.90
41904;DHT22;27586;51.124;4.182;2024-01-06T06:25:38;6.40;99.90
41904;DHT22;27586;51.124;4.182;2024-01-06T06:28:04;6.40;99.90
41904;DHT22;27586;51.124;4.182;2024-01-06T06:30:30;6.40;99.90
41904;DHT22;27586;51.124;4.182;2024-01-06T06:32:55;6.50;99.90
41904;DHT22;27586;51.124;4.182;2024-01-06T06:35:22;6.40;99.90
41904;DHT22;27586;51.124;4.182;2024-01-06T06:37:48;6.50;99.90
41904;DHT22;27586;51.124;4.182;2024-01-06T06:40:15;6.40;99.90
41904;DHT22;27586;51.124;4.182;2024-01-06T06:42:40;6.50;99.90
41904;DHT22;27586;51.124;4.182;2024-01-06T06:45:06;6.40;99.90
41904;DHT22;27586;51.124;4.182;2024-01-06T06:47:32;6.40;99.90
41904;DHT22;27586;51.124;4.182;2024-01-06T06:49:58;6.40;99.90
41904;DHT22;27586;51.124;4.182;2024-01-06T06:52:23;6.30;99.90
41904;DHT22;27586;51.124;4.182;2024-01-06T06:54:49;6.40;99.90
41904;DHT22;27586;51.124;4.182;2024-01-06T06:57:15;6.30;99.90
41904;DHT22;27586;51.124;4.182;2024-01-06T06:59:41;6.30;99.90
41904;DHT22;27586;51.124;4.182;2024-01-06T07:02:07;6.30;99.90
41904;DHT22;27586;51.124;4.182;2024-01-06T07:04:32;6.40;99.90
41904;DHT22;27586;51.124;4.182;2024-01-06T07:06:58;6.30;99.90
41904;DHT22;27586;51.124;4.182;2024-01-06T07:09:24;6.30;99.90
41904;DHT22;27586;51.124;4.182;2024-01-06T07:11:50;6.30;99.90
41904;DHT22;27586;51.124;4.182;2024-01-06T07:14:16;6.30;99.90
41904;DHT22;27586;51.124;4.182;2024-01-06T07:16:41;6.40;99.90
41904;DHT22;27586;51.124;4.182;2024-01-06T07:19:07;6.40;99.90
41904;DHT22;27586;51.124;4.182;2024-01-06T07:21:33;6.40;99.90
41904;DHT22;27586;51.124;4.182;2024-01-06T07:23:59;6.40;99.90
41904;DHT22;27586;51.124;4.182;2024-01-06T07:26:26;6.40;99.90
41904;DHT22;27586;51.124;4.182;2024-01-06T07:28:53;6.40;99.90
41904;DHT22;27586;51.124;4.182;2024-01-06T07:31:18;6.30;99.90
41904;DHT22;27586;51.124;4.182;2024-01-06T07:33:44;6.30;99.90
41904;DHT22;27586;51.124;4.182;2024-01-06T07:36:10;6.20;99.90
41904;DHT22;27586;51.124;4.182;2024-01-06T07:38:36;6.20;99.90
41904;DHT22;27586;51.124;4.182;2024-01-06T07:41:02;6.10;99.90
41904;DHT22;27586;51.124;4.182;2024-01-06T07:43:30;6.10;99.90
41904;DHT22;27586;51.124;4.182;2024-01-06T07:45:56;6.10;99.90
41904;DHT22;27586;51.124;4.182;2024-01-06T07:48:22;6.00;99.90
41904;DHT22;27586;51.124;4.182;2024-01-06T07:50:48;6.00;99.90
41904;DHT22;27586;51.124;4.182;2024-01-06T07:53:13;6.10;99.90
41904;DHT22;27586;51.124;4.182;2024-01-06T07:55:40;6.10;99.90
41904;DHT22;27586;51.124;4.182;2024-01-06T07:58:05;6.00;99.90
41904;DHT22;27586;51.124;4.182;2024-01-06T08:00:31;6.00;99.90
41904;DHT22;27586;51.124;4.182;2024-01-06T08:02:57;6.00;99.90
41904;DHT22;27586;51.124;4.182;2024-01-06T08:05:22;6.00;99.90
41904;DHT22;27586;51.124;4.182;2024-01-06T08:07:50;6.00;99.90
41904;DHT22;27586;51.124;4.182;2024-01-06T08:10:16;5.90;99.90
41904;DHT22;27586;51.124;4.182;2024-01-06T08:12:42;6.00;99.90
41904;DHT22;27586;51.124;4.182;2024-01-06T08:15:08;6.00;99.90
41904;DHT22;27586;51.124;4.182;2024-01-06T08:17:35;6.00;99.90
41904;DHT22;27586;51.124;4.182;2024-01-06T08:20:01;6.00;99.90
41904;DHT22;27586;51.124;4.182;2024-01-06T08:22:27;5.90;99.90
41904;DHT22;27586;51.124;4.182;2024-01-06T08:24:52;5.90;99.90
41904;DHT22;27586;51.124;4.182;2024-01-06T08:27:18;5.90;99.90
41904;DHT22;27586;51.124;4.182;2024-01-06T08:29:44;6.00;99.90
41904;DHT22;27586;51.124;4.182;2024-01-06T08:32:09;6.00;99.90
41904;DHT22;27586;51.124;4.182;2024-01-06T08:34:36;6.00;99.90
41904;DHT22;27586;51.124;4.182;2024-01-06T08:37:02;6.10;99.90
41904;DHT22;27586;51.124;4.182;2024-01-06T08:39:29;6.00;99.90
41904;DHT22;27586;51.124;4.182;2024-01-06T08:41:55;5.90;99.90
41904;DHT22;27586;51.124;4.182;2024-01-06T08:44:20;5.90;99.90
41904;DHT22;27586;51.124;4.182;2024-01-06T08:46:46;5.90;99.90
41904;DHT22;27586;51.124;4.182;2024-01-06T08:49:12;5.80;99.90
41904;DHT22;27586;51.124;4.182;2024-01-06T08:51:37;5.90;99.90
41904;DHT22;27586;51.124;4.182;2024-01-06T08:54:03;5.90;99.90
41904;DHT22;27586;51.124;4.182;2024-01-06T08:56:34;5.80;99.90
41904;DHT22;27586;51.124;4.182;2024-01-06T08:59:00;5.80;99.90
41904;DHT22;27586;51.124;4.182;2024-01-06T09:01:31;5.90;99.90
41904;DHT22;27586;51.124;4.182;2024-01-06T09:03:58;5.80;99.90
41904;DHT22;27586;51.124;4.182;2024-01-06T09:06:23;5.80;99.90
41904;DHT22;27586;51.124;4.182;2024-01-06T09:08:49;5.80;99.90
41904;DHT22;27586;51.124;4.182;2024-01-06T09:11:15;5.70;99.90
41904;DHT22;27586;51.124;4.182;2024-01-06T09:13:40;5.70;99.90
41904;DHT22;27586;51.124;4.182;2024-01-06T09:16:06;5.80;99.90
41904;DHT22;27586;51.124;4.182;2024-01-06T09:18:32;5.80;99.90
41904;DHT22;27586;51.124;4.182;2024-01-06T09:20:57;5.80;99.90
41904;DHT22;27586;51.124;4.182;2024-01-06T09:23:23;5.80;99.90
41904;DHT22;27586;51.124;4.182;2024-01-06T09:25:49;5.80;99.90
41904;DHT22;27586;51.124;4.182;2024-01-06T09:28:16;5.80;99.90
41904;DHT22;27586;51.124;4.182;2024-01-06T09:30:42;5.80;99.90
41904;DHT22;27586;51.124;4.182;2024-01-06T09:33:07;5.70;99.90
41904;DHT22;27586;51.124;4.182;2024-01-06T09:35:36;5.70;99.90
41904;DHT22;27586;51.124;4.182;2024-01-06T09:38:01;5.70;99.90
41904;DHT22;27586;51.124;4.182;2024-01-06T09:40:31;5.70;99.90
41904;DHT22;27586;51.124;4.182;2024-01-06T09:42:57;5.70;99.90
41904;DHT22;27586;51.124;4.182;2024-01-06T09:45:22;5.80;99.90
41904;DHT22;27586;51.124;4.182;2024-01-06T09:47:50;5.80;99.90
41904;DHT22;27586;51.124;4.182;2024-01-06T09:50:18;5.80;99.90
41904;DHT22;27586;51.124;4.182;2024-01-06T09:52:48;5.80;99.90
41904;DHT22;27586;51.124;4.182;2024-01-06T09:55:25;5.80;99.90
41904;DHT22;27586;51.124;4.182;2024-01-06T09:57:52;5.70;99.90
41904;DHT22;27586;51.124;4.182;2024-01-06T10:00:19;5.80;99.90
41904;DHT22;27586;51.124;4.182;2024-01-06T10:02:50;5.80;99.90
41904;DHT22;27586;51.124;4.182;2024-01-06T10:05:20;5.90;99.90
41904;DHT22;27586;51.124;4.182;2024-01-06T10:07:47;5.90;99.90
41904;DHT22;27586;51.124;4.182;2024-01-06T10:10:13;5.90;99.90
41904;DHT22;27586;51.124;4.182;2024-01-06T10:12:41;5.90;99.90
41904;DHT22;27586;51.124;4.182;2024-01-06T10:15:08;5.90;99.90
41904;DHT22;27586;51.124;4.182;2024-01-06T10:17:37;5.80;99.90
41904;DHT22;27586;51.124;4.182;2024-01-06T10:20:15;5.80;99.90
41904;DHT22;27586;51.124;4.182;2024-01-06T10:22:43;5.80;99.90
41904;DHT22;27586;51.124;4.182;2024-01-06T10:25:10;5.90;99.90
41904;DHT22;27586;51.124;4.182;2024-01-06T10:27:39;5.90;99.90
41904;DHT22;27586;51.124;4.182;2024-01-06T10:30:09;5.90;99.90
41904;DHT22;27586;51.124;4.182;2024-01-06T10:32:36;6.00;99.90
41904;DHT22;27586;51.124;4.182;2024-01-06T10:35:02;6.10;99.90
41904;DHT22;27586;51.124;4.182;2024-01-06T10:37:29;6.00;99.90
41904;DHT22;27586;51.124;4.182;2024-01-06T10:40:15;6.10;99.90
41904;DHT22;27586;51.124;4.182;2024-01-06T10:42:44;5.90;99.90
41904;DHT22;27586;51.124;4.182;2024-01-06T10:45:12;5.80;99.90
41904;DHT22;27586;51.124;4.182;2024-01-06T10:47:40;5.90;99.90
41904;DHT22;27586;51.124;4.182;2024-01-06T10:50:06;5.90;99.90
41904;DHT22;27586;51.124;4.182;2024-01-06T10:52:34;5.90;99.90
41904;DHT22;27586;51.124;4.182;2024-01-06T10:55:01;5.80;99.90
41904;DHT22;27586;51.124;4.182;2024-01-06T10:57:29;5.70;99.90
41904;DHT22;27586;51.124;4.182;2024-01-06T10:59:58;5.70;99.90
41904;DHT22;27586;51.124;4.182;2024-01-06T11:02:24;5.70;99.90
41904;DHT22;27586;51.124;4.182;2024-01-06T11:04:53;5.60;99.90
41904;DHT22;27586;51.124;4.182;2024-01-06T11:07:21;5.50;99.90
41904;DHT22;27586;51.124;4.182;2024-01-06T11:12:24;5.60;99.90
41904;DHT22;27586;51.124;4.182;2024-01-06T11:14:51;5.70;99.90
41904;DHT22;27586;51.124;4.182;2024-01-06T11:17:49;5.70;99.90
41904;DHT22;27586;51.124;4.182;2024-01-06T11:20:15;5.80;99.90
41904;DHT22;27586;51.124;4.182;2024-01-06T11:22:41;5.80;99.90
41904;DHT22;27586;51.124;4.182;2024-01-06T11:25:10;5.80;99.90
41904;DHT22;27586;51.124;4.182;2024-01-06T11:27:38;5.80;99.90
41904;DHT22;27586;51.124;4.182;2024-01-06T11:30:05;5.80;99.90
41904;DHT22;27586;51.124;4.182;2024-01-06T11:32:38;5.80;99.90
41904;DHT22;27586;51.124;4.182;2024-01-06T11:35:11;5.80;99.90
41904;DHT22;27586;51.124;4.182;2024-01-06T11:37:41;5.90;99.90
41904;DHT22;27586;51.124;4.182;2024-01-06T11:40:23;6.00;99.90
41904;DHT22;27586;51.124;4.182;2024-01-06T11:43:06;6.10;99.90
41904;DHT22;27586;51.124;4.182;2024-01-06T11:45:36;6.10;99.90
41904;DHT22;27586;51.124;4.182;2024-01-06T11:48:04;6.10;99.90
41904;DHT22;27586;51.124;4.182;2024-01-06T11:50:35;6.20;99.90
41904;DHT22;27586;51.124;4.182;2024-01-06T11:53:02;6.20;99.90
41904;DHT22;27586;51.124;4.182;2024-01-06T11:55:28;6.20;99.90
41904;DHT22;27586;51.124;4.182;2024-01-06T11:57:55;6.10;99.90
41904;DHT22;27586;51.124;4.182;2024-01-06T12:00:21;6.00;99.90
41904;DHT22;27586;51.124;4.182;2024-01-06T12:02:47;6.00;99.90
41904;DHT22;27586;51.124;4.182;2024-01-06T12:05:17;6.00;99.90
41904;DHT22;27586;51.124;4.182;2024-01-06T12:07:53;6.00;99.90
41904;DHT22;27586;51.124;4.182;2024-01-06T12:10:21;6.00;99.90
41904;DHT22;27586;51.124;4.182;2024-01-06T12:13:01;6.00;99.90
41904;DHT22;27586;51.124;4.182;2024-01-06T12:15:29;6.00;99.90
41904;DHT22;27586;51.124;4.182;2024-01-06T12:17:55;6.00;99.90
41904;DHT22;27586;51.124;4.182;2024-01-06T12:20:24;6.00;99.90
41904;DHT22;27586;51.124;4.182;2024-01-06T12:22:53;6.00;99.90
41904;DHT22;27586;51.124;4.182;2024-01-06T12:25:23;5.90;99.90
41904;DHT22;27586;51.124;4.182;2024-01-06T12:27:49;6.00;99.90
41904;DHT22;27586;51.124;4.182;2024-01-06T12:30:16;5.90;99.90
41904;DHT22;27586;51.124;4.182;2024-01-06T12:32:45;6.00;99.90
41904;DHT22;27586;51.124;4.182;2024-01-06T12:35:11;5.90;99.90
41904;DHT22;27586;51.124;4.182;2024-01-06T12:37:38;5.90;99.90
41904;DHT22;27586;51.124;4.182;2024-01-06T12:40:04;6.00;99.90
41904;DHT22;27586;51.124;4.182;2024-01-06T12:42:29;6.00;99.90
41904;DHT22;27586;51.124;4.182;2024-01-06T12:44:55;6.00;99.90
41904;DHT22;27586;51.124;4.182;2024-01-06T12:47:21;5.90;99.90
41904;DHT22;27586;51.124;4.182;2024-01-06T12:49:46;5.80;99.90
41904;DHT22;27586;51.124;4.182;2024-01-06T12:52:12;5.90;99.90
41904;DHT22;27586;51.124;4.182;2024-01-06T12:54:39;5.90;99.90
41904;DHT22;27586;51.124;4.182;2024-01-06T12:57:05;5.90;99.90
41904;DHT22;27586;51.124;4.182;2024-01-06T12:59:31;5.90;99.90
41904;DHT22;27586;51.124;4.182;2024-01-06T13:01:57;5.80;99.90
41904;DHT22;27586;51.124;4.182;2024-01-06T13:04:22;5.70;99.90
41904;DHT22;27586;51.124;4.182;2024-01-06T13:06:48;5.70;99.90
41904;DHT22;27586;51.124;4.182;2024-01-06T13:09:15;5.80;99.90
41904;DHT22;27586;51.124;4.182;2024-01-06T13:11:42;5.80;99.90
41904;DHT22;27586;51.124;4.182;2024-01-06T13:14:08;5.80;99.90
41904;DHT22;27586;51.124;4.182;2024-01-06T13:16:34;5.80;99.90
41904;DHT22;27586;51.124;4.182;2024-01-06T13:19:00;5.90;99.90
41904;DHT22;27586;51.124;4.182;2024-01-06T13:21:26;5.90;99.90
41904;DHT22;27586;51.124;4.182;2024-01-06T13:23:54;5.80;99.90
41904;DHT22;27586;51.124;4.182;2024-01-06T13:26:25;6.00;99.90
41904;DHT22;27586;51.124;4.182;2024-01-06T13:28:50;6.00;99.90
41904;DHT22;27586;51.124;4.182;2024-01-06T13:31:16;5.90;99.90
41904;DHT22;27586;51.124;4.182;2024-01-06T13:33:42;6.10;99.90
41904;DHT22;27586;51.124;4.182;2024-01-06T13:36:08;6.10;99.90
41904;DHT22;27586;51.124;4.182;2024-01-06T13:38:33;6.10;99.90
41904;DHT22;27586;51.124;4.182;2024-01-06T13:40:59;6.00;99.90
41904;DHT22;27586;51.124;4.182;2024-01-06T13:43:24;6.00;99.90
41904;DHT22;27586;51.124;4.182;2024-01-06T13:45:50;6.00;99.90
41904;DHT22;27586;51.124;4.182;2024-01-06T13:48:16;6.00;99.90
41904;DHT22;27586;51.124;4.182;2024-01-06T13:50:42;6.00;99.90
41904;DHT22;27586;51.124;4.182;2024-01-06T13:53:08;5.90;99.90
41904;DHT22;27586;51.124;4.182;2024-01-06T13:55:34;5.90;99.90
41904;DHT22;27586;51.124;4.182;2024-01-06T13:58:00;5.90;99.90
41904;DHT22;27586;51.124;4.182;2024-01-06T14:00:25;5.90;99.90
41904;DHT22;27586;51.124;4.182;2024-01-06T14:02:51;5.90;99.90
41904;DHT22;27586;51.124;4.182;2024-01-06T14:05:17;5.90;99.90
41904;DHT22;27586;51.124;4.182;2024-01-06T14:07:45;5.90;99.90
41904;DHT22;27586;51.124;4.182;2024-01-06T14:10:12;6.00;99.90
41904;DHT22;27586;51.124;4.182;2024-01-06T14:12:41;6.00;99.90
41904;DHT22;27586;51.124;4.182;2024-01-06T14:15:07;6.00;99.90
41904;DHT22;27586;51.124;4.182;2024-01-06T14:17:33;6.10;99.90
41904;DHT22;27586;51.124;4.182;2024-01-06T14:19:59;6.00;99.90
41904;DHT22;27586;51.124;4.182;2024-01-06T14:22:26;6.00;99.90
41904;DHT22;27586;51.124;4.182;2024-01-06T14:24:52;6.00;99.90
41904;DHT22;27586;51.124;4.182;2024-01-06T14:27:17;5.80;99.90
41904;DHT22;27586;51.124;4.182;2024-01-06T14:29:43;5.80;99.90
41904;DHT22;27586;51.124;4.182;2024-01-06T14:32:09;5.80;99.90
41904;DHT22;27586;51.124;4.182;2024-01-06T14:34:35;5.80;99.90
41904;DHT22;27586;51.124;4.182;2024-01-06T14:37:00;5.80;99.90
41904;DHT22;27586;51.124;4.182;2024-01-06T14:39:26;5.80;99.90
41904;DHT22;27586;51.124;4.182;2024-01-06T14:41:52;5.90;99.90
41904;DHT22;27586;51.124;4.182;2024-01-06T14:44:18;5.90;99.90
41904;DHT22;27586;51.124;4.182;2024-01-06T14:46:47;5.80;99.90
41904;DHT22;27586;51.124;4.182;2024-01-06T14:49:13;5.80;99.90
41904;DHT22;27586;51.124;4.182;2024-01-06T14:51:38;5.80;99.90
41904;DHT22;27586;51.124;4.182;2024-01-06T14:54:04;5.80;99.90
41904;DHT22;27586;51.124;4.182;2024-01-06T14:56:30;5.70;99.90
41904;DHT22;27586;51.124;4.182;2024-01-06T14:58:56;5.70;99.90
41904;DHT22;27586;51.124;4.182;2024-01-06T15:01:22;5.80;99.90
41904;DHT22;27586;51.124;4.182;2024-01-06T15:03:47;5.60;99.90
41904;DHT22;27586;51.124;4.182;2024-01-06T15:06:13;5.70;99.90
41904;DHT22;27586;51.124;4.182;2024-01-06T15:08:39;5.70;99.90
41904;DHT22;27586;51.124;4.182;2024-01-06T15:11:04;5.60;99.90
41904;DHT22;27586;51.124;4.182;2024-01-06T15:13:32;5.60;99.90
41904;DHT22;27586;51.124;4.182;2024-01-06T15:15:57;5.60;99.90
41904;DHT22;27586;51.124;4.182;2024-01-06T15:18:23;5.60;99.90
41904;DHT22;27586;51.124;4.182;2024-01-06T15:20:49;5.70;99.90
41904;DHT22;27586;51.124;4.182;2024-01-06T15:23:15;5.70;99.90
41904;DHT22;27586;51.124;4.182;2024-01-06T15:25:44;5.60;99.90
41904;DHT22;27586;51.124;4.182;2024-01-06T15:28:09;5.50;99.90
41904;DHT22;27586;51.124;4.182;2024-01-06T15:30:35;5.50;99.90
41904;DHT22;27586;51.124;4.182;2024-01-06T15:33:01;5.50;99.90
41904;DHT22;27586;51.124;4.182;2024-01-06T15:35:26;5.40;99.90
41904;DHT22;27586;51.124;4.182;2024-01-06T15:37:52;5.50;99.90
41904;DHT22;27586;51.124;4.182;2024-01-06T15:40:18;5.50;99.90
41904;DHT22;27586;51.124;4.182;2024-01-06T15:42:43;5.50;99.90